Time;durP1;ratioP1;P1;durP2;ratioP2;P2;SDS_P1;SDS_P2;PMS_P1;PMS_P2;Temp;Humidity;BMP_temperature;BMP_pressure;BME280_temperature;BME280_humidity;BME280_pressure;Samples;Min_cycle;Max_cycle;Signal;HPM_P1;HPM_P2
2022/01/10 00:00:18;;;;;;;3.13;1.80;;;19.30;49.60;;;;;;5059186;28;20476;-22
2022/01/10 00:02:46;;;;;;;2.67;1.70;;;19.20;49.70;;;;;;5076702;28;20202;-24
2022/01/10 00:05:12;;;;;;;2.57;1.80;;;19.10;49.80;;;;;;5076578;28;20196;-23
2022/01/10 00:07:38;;;;;;;1.63;1.50;;;19.10;49.90;;;;;;5076396;28;20183;-23
2022/01/10 00:10:04;;;;;;;3.17;1.70;;;19.00;50.00;;;;;;5059577;28;20176;-21
2022/01/10 00:12:30;;;;;;;2.07;1.57;;;19.00;50.20;;;;;;5077062;28;20176;-21
2022/01/10 00:14:56;;;;;;;3.00;1.50;;;18.90;50.30;;;;;;5060070;28;20184;-21
2022/01/10 00:17:21;;;;;;;2.97;1.80;;;18.80;50.40;;;;;;5076605;28;20218;-21
2022/01/10 00:19:47;;;;;;;1.40;1.30;;;18.80;50.50;;;;;;5077552;28;20448;-22
2022/01/10 00:22:13;;;;;;;2.17;1.50;;;18.70;50.60;;;;;;5076964;28;20177;-24
2022/01/10 00:24:39;;;;;;;2.00;1.43;;;18.70;50.70;;;;;;5076651;28;20507;-22
2022/01/10 00:27:05;;;;;;;2.60;1.60;;;18.60;50.80;;;;;;5059225;28;20178;-25
2022/01/10 00:29:30;;;;;;;3.03;1.40;;;18.60;50.90;;;;;;5076550;28;20560;-21
2022/01/10 00:31:59;;;;;;;1.77;1.30;;;18.60;51.00;;;;;;5059570;28;20186;-24
2022/01/10 00:34:26;;;;;;;1.77;1.40;;;18.50;51.10;;;;;;5060911;28;20277;-25
2022/01/10 00:36:52;;;;;;;3.00;1.53;;;18.50;51.20;;;;;;5077408;28;20203;-24
2022/01/10 00:39:19;;;;;;;2.23;1.60;;;18.40;51.30;;;;;;5077886;28;20171;-22
2022/01/10 00:41:45;;;;;;;3.13;1.60;;;18.40;51.40;;;;;;5059027;28;20271;-24
2022/01/10 00:44:12;;;;;;;2.17;1.70;;;18.30;51.40;;;;;;5060216;28;20199;-22
2022/01/10 00:46:38;;;;;;;1.63;1.40;;;18.30;51.50;;;;;;5076576;28;20203;-24
2022/01/10 00:49:04;;;;;;;2.23;1.50;;;18.30;51.70;;;;;;5058172;28;20193;-21
2022/01/10 00:51:30;;;;;;;2.00;1.53;;;18.20;51.80;;;;;;5075397;28;20259;-25
2022/01/10 00:53:57;;;;;;;1.63;1.37;;;18.20;51.90;;;;;;5076255;28;20353;-23
2022/01/10 00:56:24;;;;;;;3.40;1.70;;;18.20;52.00;;;;;;5059602;28;20180;-22
2022/01/10 00:58:50;;;;;;;2.60;1.57;;;18.10;52.00;;;;;;5076818;28;20179;-23
2022/01/10 01:01:17;;;;;;;2.37;1.60;;;18.10;52.10;;;;;;5059189;28;20452;-21
2022/01/10 01:03:44;;;;;;;2.53;1.53;;;18.10;52.30;;;;;;5077220;28;20575;-23
2022/01/10 01:06:11;;;;;;;3.07;1.70;;;18.00;52.30;;;;;;5076989;28;20242;-23
2022/01/10 01:08:37;;;;;;;1.90;1.60;;;18.10;52.40;;;;;;5076809;28;20572;-24
2022/01/10 01:13:58;;;;;;;2.57;1.40;;;18.10;52.30;;;;;;5075532;28;20163;-23
2022/01/10 01:17:10;;;;;;;2.13;1.50;;;18.10;52.20;;;;;;5075020;28;20463;-21
2022/01/10 01:25:13;;;;;;;1.70;1.23;;;18.30;52.00;;;;;;5033362;28;20269;-23
2022/01/10 01:27:41;;;;;;;2.50;1.77;;;18.30;51.90;;;;;;5055999;28;20172;-23
2022/01/10 01:30:08;;;;;;;1.87;1.47;;;18.30;51.80;;;;;;5056711;28;20341;-22
2022/01/10 01:32:34;;;;;;;1.50;1.40;;;18.30;51.70;;;;;;5076880;28;20628;-21
2022/01/10 01:35:05;;;;;;;3.40;1.60;;;18.40;51.60;;;;;;5058286;28;20180;-23
2022/01/10 01:37:31;;;;;;;2.30;1.60;;;18.40;51.50;;;;;;5075826;28;20526;-23
2022/01/10 01:39:57;;;;;;;2.10;1.50;;;18.40;51.50;;;;;;5076058;28;20171;-21
2022/01/10 01:42:38;;;;;;;2.67;1.50;;;18.40;51.40;;;;;;5058763;28;20177;-21
2022/01/10 01:45:07;;;;;;;2.73;1.63;;;18.40;51.30;;;;;;5076973;28;20256;-21
2022/01/10 01:47:33;;;;;;;4.80;1.70;;;18.40;51.30;;;;;;5076519;28;20258;-23
2022/01/10 01:49:59;;;;;;;1.77;1.50;;;18.40;51.30;;;;;;5058834;28;20356;-22
2022/01/10 01:52:26;;;;;;;3.10;1.60;;;18.40;51.30;;;;;;5058482;28;20455;-24
2022/01/10 01:54:52;;;;;;;2.73;1.60;;;18.40;51.30;;;;;;5075998;28;20174;-22
2022/01/10 01:57:19;;;;;;;1.80;1.60;;;18.40;51.40;;;;;;5075488;28;20338;-21
2022/01/10 01:59:45;;;;;;;2.03;1.60;;;18.40;51.40;;;;;;5075332;28;20171;-22
2022/01/10 02:02:11;;;;;;;2.87;1.57;;;18.30;51.40;;;;;;5055850;28;20176;-23
2022/01/10 02:04:37;;;;;;;1.77;1.50;;;18.30;51.40;;;;;;5075073;28;20174;-23
2022/01/10 02:07:03;;;;;;;1.93;1.57;;;18.30;51.50;;;;;;5077680;28;20220;-23
2022/01/10 02:09:30;;;;;;;3.50;1.73;;;18.30;51.50;;;;;;5082546;28;20291;-22
2022/01/10 02:11:56;;;;;;;2.43;1.57;;;18.20;51.50;;;;;;5087645;28;20466;-23
2022/01/10 02:14:22;;;;;;;2.07;1.63;;;18.20;51.60;;;;;;5098609;28;20177;-21
2022/01/10 02:16:55;;;;;;;2.57;1.50;;;18.20;51.60;;;;;;5080326;28;20305;-24
2022/01/10 02:19:21;;;;;;;2.00;1.60;;;18.20;51.50;;;;;;5098573;28;20189;-25
2022/01/10 02:21:46;;;;;;;1.93;1.70;;;18.20;51.60;;;;;;5097485;28;20186;-23
2022/01/10 02:24:12;;;;;;;2.30;1.47;;;18.20;51.60;;;;;;5080856;28;20233;-24
2022/01/10 02:26:39;;;;;;;2.87;1.77;;;18.20;51.60;;;;;;5080701;28;20189;-21
2022/01/10 02:29:07;;;;;;;2.03;1.40;;;18.20;51.60;;;;;;5098055;28;20197;-22
2022/01/10 02:31:39;;;;;;;2.53;1.67;;;18.20;51.60;;;;;;5074564;28;20567;-23
2022/01/10 02:34:05;;;;;;;2.90;1.63;;;18.20;51.60;;;;;;5076136;28;20185;-23
2022/01/10 02:36:31;;;;;;;2.00;1.50;;;18.20;51.70;;;;;;5083672;28;20270;-23
2022/01/10 02:39:03;;;;;;;1.67;1.43;;;18.10;51.70;;;;;;5069648;28;20222;-24
2022/01/10 02:41:35;;;;;;;2.50;1.60;;;18.10;51.70;;;;;;5080784;28;20230;-21
2022/01/10 02:44:03;;;;;;;2.13;1.67;;;18.10;51.70;;;;;;5089508;28;20253;-24
2022/01/10 02:46:37;;;;;;;2.73;1.70;;;18.10;51.70;;;;;;5079919;28;20257;-24
2022/01/10 02:49:23;;;;;;;3.57;1.90;;;18.10;51.80;;;;;;5082548;28;20192;-22
2022/01/10 02:51:49;;;;;;;1.87;1.47;;;18.00;51.80;;;;;;5081165;28;20197;-22
2022/01/10 02:54:15;;;;;;;2.63;1.53;;;18.00;51.80;;;;;;5077489;28;20183;-24
2022/01/10 02:56:49;;;;;;;2.83;1.80;;;18.00;51.90;;;;;;5059751;28;20241;-22
2022/01/10 02:59:15;;;;;;;3.90;1.60;;;18.00;51.90;;;;;;5061642;28;20315;-22
2022/01/10 03:01:40;;;;;;;3.70;1.90;;;17.90;51.90;;;;;;5083359;28;20276;-24
2022/01/10 03:04:07;;;;;;;2.67;1.80;;;17.90;52.00;;;;;;5067905;28;20181;-22
2022/01/10 03:06:33;;;;;;;1.63;1.50;;;17.90;52.00;;;;;;5084187;28;20183;-24
2022/01/10 03:09:05;;;;;;;1.87;1.63;;;17.90;52.00;;;;;;5080397;28;20181;-23
2022/01/10 03:11:34;;;;;;;3.03;1.80;;;17.90;52.00;;;;;;5085057;28;20197;-23
2022/01/10 03:14:00;;;;;;;2.30;1.50;;;17.90;52.00;;;;;;5074159;28;20187;-21
2022/01/10 03:16:26;;;;;;;2.63;1.53;;;17.80;52.10;;;;;;5074910;28;20199;-22
2022/01/10 03:18:52;;;;;;;2.57;1.67;;;17.80;52.10;;;;;;5087512;28;20187;-25
2022/01/10 03:21:20;;;;;;;2.17;1.70;;;17.80;52.20;;;;;;5081986;28;20183;-24
2022/01/10 03:23:47;;;;;;;2.83;1.63;;;17.70;52.20;;;;;;5061274;28;20186;-23
2022/01/10 03:26:13;;;;;;;2.67;1.63;;;17.70;52.20;;;;;;5066747;28;20181;-24
2022/01/10 03:28:39;;;;;;;2.30;1.60;;;17.70;52.30;;;;;;5078315;28;20235;-23
2022/01/10 03:31:04;;;;;;;3.03;1.77;;;17.60;52.40;;;;;;5079845;28;20245;-22
2022/01/10 03:33:30;;;;;;;2.50;1.57;;;17.60;52.40;;;;;;5076329;28;20214;-23
2022/01/10 03:35:56;;;;;;;2.83;1.40;;;17.60;52.60;;;;;;5060430;28;20179;-23
2022/01/10 03:38:21;;;;;;;2.93;1.63;;;17.50;52.70;;;;;;5082875;28;20495;-24
2022/01/10 03:40:48;;;;;;;1.90;1.70;;;17.50;52.80;;;;;;5075819;28;20188;-23
2022/01/10 03:43:14;;;;;;;3.73;1.80;;;17.40;52.90;;;;;;5089041;28;20180;-21
2022/01/10 03:45:39;;;;;;;2.47;1.80;;;17.30;53.00;;;;;;5081086;28;20171;-21
2022/01/10 03:48:05;;;;;;;2.17;1.80;;;17.30;53.20;;;;;;5077157;28;20197;-21
2022/01/10 03:50:32;;;;;;;2.10;1.60;;;17.20;53.20;;;;;;5081381;28;20201;-21
2022/01/10 03:52:58;;;;;;;2.57;2.00;;;17.10;53.80;;;;;;5084061;28;20187;-22
2022/01/10 03:55:24;;;;;;;2.43;1.60;;;17.10;53.50;;;;;;5077238;28;20192;-24
2022/01/10 03:57:49;;;;;;;2.00;1.50;;;17.10;53.70;;;;;;5079458;28;20212;-21
2022/01/10 04:00:16;;;;;;;2.70;1.70;;;17.00;53.80;;;;;;5082546;28;20549;-23
2022/01/10 04:02:46;;;;;;;2.47;1.60;;;17.00;53.90;;;;;;5078607;28;20183;-25
2022/01/10 04:05:12;;;;;;;1.87;1.57;;;16.90;54.00;;;;;;5093525;28;20195;-22
2022/01/10 04:07:38;;;;;;;2.00;1.60;;;17.20;54.10;;;;;;5092387;28;20185;-22
2022/01/10 04:10:05;;;;;;;2.43;1.63;;;20.20;49.20;;;;;;5079802;28;20290;-22
2022/01/10 04:12:31;;;;;;;2.13;1.50;;;20.80;46.90;;;;;;5063439;28;20623;-23
2022/01/10 04:14:57;;;;;;;1.63;1.40;;;21.10;46.20;;;;;;5080722;28;20212;-25
2022/01/10 04:17:22;;;;;;;2.20;1.67;;;21.20;45.80;;;;;;5081160;28;20802;-23
2022/01/10 04:19:48;;;;;;;2.40;1.57;;;21.30;45.50;;;;;;5079719;28;20183;-24
2022/01/10 04:22:14;;;;;;;2.37;1.70;;;21.60;45.20;;;;;;5080111;28;20549;-24
2022/01/10 04:24:40;;;;;;;2.57;1.77;;;21.80;44.90;;;;;;5096667;28;20276;-23
2022/01/10 04:27:05;;;;;;;1.63;1.50;;;22.10;44.50;;;;;;5099826;28;20175;-24
2022/01/10 04:29:31;;;;;;;2.73;1.73;;;22.50;44.10;;;;;;5100166;28;20164;-23
2022/01/10 04:31:57;;;;;;;2.90;1.80;;;22.80;43.70;;;;;;5083227;28;20184;-21
2022/01/10 04:34:23;;;;;;;1.83;1.50;;;22.90;43.50;;;;;;5083101;28;20259;-22
2022/01/10 04:36:48;;;;;;;2.77;1.73;;;23.00;43.30;;;;;;5082526;28;20223;-22
2022/01/10 04:39:18;;;;;;;3.40;1.50;;;23.10;43.20;;;;;;5082736;28;20209;-22
2022/01/10 04:41:44;;;;;;;2.90;1.60;;;23.30;43.50;;;;;;5082925;28;20235;-23
2022/01/10 04:44:10;;;;;;;2.23;1.77;;;23.60;42.70;;;;;;5074081;28;20283;-22
2022/01/10 04:46:36;;;;;;;2.83;1.80;;;23.70;42.40;;;;;;5064251;28;20252;-28
2022/01/10 04:49:02;;;;;;;2.37;1.87;;;23.70;42.40;;;;;;5074112;28;20199;-22
2022/01/10 04:51:29;;;;;;;2.10;1.60;;;23.60;42.50;;;;;;5062252;28;20206;-22
2022/01/10 04:53:55;;;;;;;2.87;1.80;;;23.60;42.50;;;;;;5083702;28;20186;-22
2022/01/10 04:56:21;;;;;;;2.27;1.53;;;23.60;42.50;;;;;;5100134;28;20178;-23
2022/01/10 04:58:53;;;;;;;3.00;1.93;;;23.50;42.50;;;;;;5100201;28;20194;-21
2022/01/10 05:01:19;;;;;;;1.57;1.33;;;23.40;42.60;;;;;;5078871;28;20257;-24
2022/01/10 05:03:44;;;;;;;2.40;1.80;;;23.10;42.70;;;;;;5062315;28;20185;-23
2022/01/10 05:06:10;;;;;;;2.10;1.73;;;22.90;43.00;;;;;;5062514;28;20175;-22
2022/01/10 05:08:37;;;;;;;2.27;1.70;;;22.60;43.40;;;;;;5079602;28;20200;-23
2022/01/10 05:11:03;;;;;;;2.53;1.87;;;22.30;43.60;;;;;;5062155;28;20181;-24
2022/01/10 05:13:29;;;;;;;1.70;1.50;;;22.10;43.90;;;;;;5060757;28;20332;-23
2022/01/10 05:15:55;;;;;;;2.20;1.80;;;21.80;44.20;;;;;;5079276;28;20211;-22
2022/01/10 05:18:22;;;;;;;2.50;1.50;;;21.50;44.50;;;;;;5061682;28;20255;-24
2022/01/10 05:20:49;;;;;;;1.90;1.50;;;21.30;44.80;;;;;;5061912;28;20437;-23
2022/01/10 05:23:15;;;;;;;2.03;1.70;;;21.10;45.10;;;;;;5061521;28;20562;-24
2022/01/10 05:25:42;;;;;;;2.90;1.80;;;20.80;45.40;;;;;;5079058;28;20697;-22
2022/01/10 05:28:12;;;;;;;2.00;1.50;;;20.60;45.70;;;;;;5061730;28;20479;-23
2022/01/10 05:30:40;;;;;;;2.20;1.73;;;20.40;45.90;;;;;;5078246;28;20696;-22
2022/01/10 05:33:07;;;;;;;2.03;1.57;;;20.20;46.20;;;;;;5078761;28;20237;-22
2022/01/10 05:35:39;;;;;;;2.80;1.73;;;20.00;46.50;;;;;;5061148;28;20271;-22
2022/01/10 05:38:06;;;;;;;2.70;1.73;;;19.80;46.80;;;;;;5078636;28;20210;-24
2022/01/10 05:40:32;;;;;;;2.20;1.50;;;19.70;47.10;;;;;;5077968;28;20505;-23
2022/01/10 05:42:58;;;;;;;2.10;1.60;;;20.10;47.00;;;;;;5060631;28;20172;-25
2022/01/10 05:45:25;;;;;;;2.23;1.60;;;20.60;46.40;;;;;;5077961;28;20229;-22
2022/01/10 05:47:51;;;;;;;2.07;1.67;;;21.50;45.60;;;;;;5061081;28;20181;-21
2022/01/10 05:50:20;;;;;;;2.33;1.60;;;22.50;44.40;;;;;;5077443;28;20214;-23
2022/01/10 05:52:46;;;;;;;1.60;1.50;;;23.30;43.30;;;;;;5060750;28;20179;-22
2022/01/10 05:55:14;;;;;;;2.80;1.73;;;23.70;42.90;;;;;;5060047;28;20181;-23
2022/01/10 05:57:40;;;;;;;2.00;1.60;;;24.00;42.10;;;;;;5077971;28;20226;-23
2022/01/10 06:00:07;;;;;;;2.93;1.57;;;24.20;41.80;;;;;;5077303;28;20180;-23
2022/01/10 06:02:32;;;;;;;2.30;1.67;;;24.30;41.70;;;;;;5077775;28;20176;-23
2022/01/10 06:05:07;;;;;;;2.67;1.50;;;24.40;41.50;;;;;;5060426;28;20689;-23
2022/01/10 06:07:33;;;;;;;1.90;1.50;;;24.30;41.50;;;;;;5077396;28;20221;-22
2022/01/10 06:09:58;;;;;;;2.37;1.70;;;24.20;41.50;;;;;;5076943;28;20236;-21
2022/01/10 06:12:24;;;;;;;2.10;1.60;;;24.10;41.60;;;;;;5060256;28;20244;-25
2022/01/10 06:14:52;;;;;;;2.07;1.60;;;23.90;41.70;;;;;;5059195;28;20274;-24
2022/01/10 06:17:18;;;;;;;3.23;1.80;;;23.70;41.90;;;;;;5076818;28;20286;-25
2022/01/10 06:19:43;;;;;;;1.87;1.50;;;23.60;42.10;;;;;;5077039;28;20210;-22
2022/01/10 06:22:09;;;;;;;1.73;1.60;;;23.40;42.20;;;;;;5059763;28;20172;-25
2022/01/10 06:24:38;;;;;;;3.23;1.80;;;23.20;42.40;;;;;;5076447;28;20218;-22
2022/01/10 06:27:04;;;;;;;2.10;1.50;;;23.10;42.60;;;;;;5076281;28;20178;-24
2022/01/10 06:29:29;;;;;;;3.83;1.93;;;22.80;42.90;;;;;;5076361;28;20202;-22
2022/01/10 06:31:55;;;;;;;2.13;1.67;;;22.50;43.20;;;;;;5076289;28;20449;-22
2022/01/10 06:34:21;;;;;;;2.20;1.40;;;22.20;43.40;;;;;;5076786;28;20543;-23
2022/01/10 06:36:46;;;;;;;1.47;1.37;;;22.00;43.80;;;;;;5076017;28;20194;-22
2022/01/10 06:39:12;;;;;;;2.97;2.00;;;21.70;44.10;;;;;;5075924;28;20255;-23
2022/01/10 06:41:38;;;;;;;2.53;1.80;;;21.50;44.30;;;;;;5076061;28;20240;-23
2022/01/10 06:44:04;;;;;;;5.30;1.90;;;21.30;44.60;;;;;;5075823;28;20162;-22
2022/01/10 06:46:30;;;;;;;3.03;1.90;;;21.20;44.80;;;;;;5075915;28;20181;-23
2022/01/10 06:48:55;;;;;;;5.87;1.83;;;21.10;44.90;;;;;;5076022;28;20735;-26
2022/01/10 06:51:21;;;;;;;2.10;1.60;;;21.20;44.90;;;;;;5076034;28;20217;-24
2022/01/10 06:53:47;;;;;;;4.17;1.90;;;21.30;44.70;;;;;;5075395;28;20262;-23
2022/01/10 06:56:13;;;;;;;2.80;1.90;;;21.60;44.50;;;;;;5075805;28;20482;-24
2022/01/10 06:58:38;;;;;;;1.90;1.60;;;21.90;44.20;;;;;;5057991;28;20211;-21
2022/01/10 07:01:04;;;;;;;2.70;1.73;;;22.40;43.70;;;;;;5075385;28;20155;-24
2022/01/10 07:03:31;;;;;;;2.30;1.77;;;22.90;43.20;;;;;;5075788;28;20195;-22
2022/01/10 07:05:57;;;;;;;2.30;1.83;;;23.30;42.70;;;;;;5076209;28;20254;-23
2022/01/10 07:08:23;;;;;;;3.03;1.97;;;23.70;42.20;;;;;;5075595;28;20261;-23
2022/01/10 07:10:49;;;;;;;2.63;1.70;;;24.00;41.90;;;;;;5075705;28;20261;-24
2022/01/10 07:13:15;;;;;;;3.87;1.80;;;24.00;41.80;;;;;;5058822;28;20279;-24
2022/01/10 07:15:40;;;;;;;2.87;1.77;;;24.10;41.70;;;;;;5058291;28;20175;-24
2022/01/10 07:18:06;;;;;;;2.10;1.60;;;24.10;41.60;;;;;;5057960;28;20203;-24
2022/01/10 07:20:33;;;;;;;2.40;1.60;;;24.20;41.60;;;;;;5058477;28;20358;-22
2022/01/10 07:22:59;;;;;;;2.87;1.80;;;24.20;41.70;;;;;;5075823;28;20250;-24
2022/01/10 07:25:24;;;;;;;3.53;1.70;;;24.10;41.80;;;;;;5075402;28;20265;-24
2022/01/10 07:27:50;;;;;;;3.67;1.80;;;24.00;42.10;;;;;;5075412;28;20189;-25
2022/01/10 07:30:16;;;;;;;3.67;2.00;;;23.70;42.30;;;;;;5075449;28;20183;-23
2022/01/10 07:32:42;;;;;;;3.23;1.83;;;23.60;42.50;;;;;;5058344;28;20185;-23
2022/01/10 07:35:10;;;;;;;6.40;1.90;;;23.50;42.70;;;;;;5075847;28;20163;-23
2022/01/10 07:37:36;;;;;;;2.87;1.93;;;23.20;42.90;;;;;;5059463;28;20567;-21
2022/01/10 07:40:04;;;;;;;5.00;2.20;;;23.00;43.20;;;;;;5079464;28;20177;-23
2022/01/10 07:42:30;;;;;;;4.33;1.70;;;22.70;43.50;;;;;;5080052;28;20488;-24
2022/01/10 07:44:56;;;;;;;4.90;2.10;;;22.50;43.80;;;;;;5079461;28;20555;-23
2022/01/10 07:47:21;;;;;;;3.37;1.87;;;22.40;44.10;;;;;;5080315;28;20169;-25
2022/01/10 07:49:47;;;;;;;5.60;2.00;;;22.20;44.20;;;;;;5079475;28;20722;-21
2022/01/10 07:52:13;;;;;;;4.57;1.93;;;21.90;44.50;;;;;;5079544;28;20178;-21
2022/01/10 07:54:39;;;;;;;3.57;1.87;;;21.80;44.80;;;;;;5079244;28;20470;-27
2022/01/10 07:57:05;;;;;;;3.63;2.20;;;21.60;45.00;;;;;;5061394;28;20205;-23
2022/01/10 07:59:31;;;;;;;3.27;2.30;;;21.40;45.20;;;;;;5079649;28;20241;-22
2022/01/10 08:01:57;;;;;;;4.07;2.07;;;21.40;45.40;;;;;;5061287;28;20657;-23
2022/01/10 08:04:23;;;;;;;4.67;2.37;;;21.40;45.40;;;;;;5060630;28;20170;-24
2022/01/10 08:06:48;;;;;;;6.37;2.40;;;21.60;45.20;;;;;;5061919;28;20330;-22
2022/01/10 08:09:14;;;;;;;5.53;2.20;;;21.80;45.00;;;;;;5078583;28;20203;-23
2022/01/10 08:11:40;;;;;;;3.60;2.27;;;22.20;44.60;;;;;;5078894;28;20617;-24
2022/01/10 08:14:06;;;;;;;4.57;2.37;;;22.50;44.10;;;;;;5061939;28;20173;-23
2022/01/10 08:16:32;;;;;;;5.93;2.80;;;23.00;43.60;;;;;;5061149;28;20174;-23
2022/01/10 08:18:58;;;;;;;5.77;2.50;;;23.40;43.00;;;;;;5061453;28;20175;-22
2022/01/10 08:21:24;;;;;;;4.70;2.67;;;24.00;42.50;;;;;;5060962;28;20171;-23
2022/01/10 08:23:50;;;;;;;5.53;2.40;;;24.30;42.00;;;;;;5078660;28;20254;-24
2022/01/10 08:26:16;;;;;;;4.17;2.50;;;24.30;41.80;;;;;;5060956;28;20577;-21
2022/01/10 08:28:42;;;;;;;3.90;2.17;;;24.40;41.70;;;;;;5078793;28;20171;-22
2022/01/10 08:31:11;;;;;;;3.80;2.30;;;24.50;41.60;;;;;;5060818;28;20183;-22
2022/01/10 08:33:37;;;;;;;6.10;2.70;;;24.60;41.40;;;;;;5078443;28;20178;-24
2022/01/10 08:36:03;;;;;;;3.00;2.30;;;24.40;41.50;;;;;;5078578;28;20611;-22
2022/01/10 08:38:34;;;;;;;3.73;2.40;;;24.00;41.80;;;;;;5078131;28;20234;-24
2022/01/10 08:41:00;;;;;;;6.03;2.90;;;23.60;42.10;;;;;;5061254;28;20166;-23
2022/01/10 08:43:26;;;;;;;4.33;2.77;;;23.20;42.50;;;;;;5061146;28;20497;-23
2022/01/10 08:45:51;;;;;;;4.43;2.53;;;22.80;42.90;;;;;;5078451;28;20171;-22
2022/01/10 08:48:17;;;;;;;4.37;2.80;;;22.50;43.20;;;;;;5059066;28;20182;-24
2022/01/10 08:50:43;;;;;;;3.30;2.30;;;22.20;43.60;;;;;;5059680;28;20682;-23
2022/01/10 08:53:10;;;;;;;5.03;2.77;;;21.90;43.90;;;;;;5077584;28;20258;-22
2022/01/10 08:55:35;;;;;;;5.53;2.70;;;21.70;44.20;;;;;;5077450;28;20174;-25
2022/01/10 08:58:03;;;;;;;3.40;2.50;;;21.50;44.40;;;;;;5060042;28;20205;-21
2022/01/10 09:00:29;;;;;;;5.40;3.10;;;21.30;44.70;;;;;;5078223;28;20151;-25
2022/01/10 09:02:55;;;;;;;4.83;3.03;;;21.10;44.90;;;;;;5078015;28;20331;-24
2022/01/10 09:05:20;;;;;;;6.20;2.60;;;21.10;45.00;;;;;;5077921;28;20199;-23
2022/01/10 09:07:47;;;;;;;6.23;2.97;;;21.20;45.00;;;;;;5078067;28;20238;-23
2022/01/10 09:10:13;;;;;;;4.17;2.80;;;21.50;44.70;;;;;;5077761;28;20326;-23
2022/01/10 09:12:39;;;;;;;5.40;3.40;;;22.00;44.10;;;;;;5060559;28;20586;-22
2022/01/10 09:15:09;;;;;;;6.70;3.07;;;22.80;43.80;;;;;;5061077;28;20166;-21
2022/01/10 09:17:36;;;;;;;4.13;2.87;;;23.60;42.50;;;;;;5059308;28;20249;-22
2022/01/10 09:20:02;;;;;;;5.33;2.97;;;24.30;41.80;;;;;;5076960;28;20168;-22
2022/01/10 09:22:28;;;;;;;5.13;3.03;;;24.50;41.50;;;;;;5077633;28;20175;-22
2022/01/10 09:24:54;;;;;;;6.77;3.33;;;24.90;41.00;;;;;;5043487;28;20182;-22
2022/01/10 09:27:20;;;;;;;5.47;2.80;;;25.10;40.70;;;;;;5077010;28;20180;-27
2022/01/10 09:29:46;;;;;;;5.43;3.30;;;24.90;40.60;;;;;;5078034;28;20715;-21
2022/01/10 09:32:12;;;;;;;5.57;3.10;;;24.70;40.80;;;;;;5077475;28;20169;-22
2022/01/10 09:34:38;;;;;;;4.47;3.23;;;24.60;41.00;;;;;;5078018;28;20282;-23
2022/01/10 09:37:06;;;;;;;4.03;3.10;;;24.60;41.00;;;;;;5077392;28;20431;-21
2022/01/10 09:39:32;;;;;;;5.60;3.03;;;24.70;40.90;;;;;;5058348;28;20332;-25
2022/01/10 09:41:58;;;;;;;4.07;3.07;;;24.80;40.80;;;;;;5059522;28;20254;-25
2022/01/10 09:44:25;;;;;;;6.70;3.23;;;24.70;40.80;;;;;;5059126;28;20194;-25
2022/01/10 09:46:51;;;;;;;6.43;3.57;;;24.50;40.90;;;;;;5076627;28;20556;-22
2022/01/10 09:49:18;;;;;;;4.23;2.87;;;24.30;41.10;;;;;;5059041;28;20175;-23
2022/01/10 09:51:45;;;;;;;5.03;3.03;;;24.10;41.30;;;;;;5076136;28;20596;-25
2022/01/10 09:54:11;;;;;;;5.47;3.20;;;23.90;41.50;;;;;;5076573;28;20627;-23
2022/01/10 09:56:38;;;;;;;5.20;3.10;;;23.70;41.80;;;;;;5058992;28;20175;-25
2022/01/10 09:59:05;;;;;;;5.90;3.30;;;23.40;42.00;;;;;;5059540;28;20179;-19
2022/01/10 10:01:31;;;;;;;5.03;3.47;;;23.20;42.20;;;;;;5075834;28;20179;-25
2022/01/10 10:03:59;;;;;;;6.43;3.43;;;23.00;42.60;;;;;;5076388;28;20652;-23
2022/01/10 10:06:27;;;;;;;6.40;3.60;;;22.70;42.80;;;;;;5058540;28;20182;-22
2022/01/10 10:08:58;;;;;;;5.83;4.07;;;22.40;43.20;;;;;;5075536;28;20287;-24
2022/01/10 10:11:34;;;;;;;5.60;4.13;;;22.10;43.50;;;;;;5093271;28;20171;-24
2022/01/10 10:14:04;;;;;;;5.83;4.50;;;22.00;43.80;;;;;;5075663;28;20258;-22
2022/01/10 10:16:31;;;;;;;5.83;4.67;;;21.80;44.00;;;;;;5078266;28;20176;-23
2022/01/10 10:18:58;;;;;;;8.77;5.80;;;21.60;44.20;;;;;;5075412;28;20186;-25
2022/01/10 10:21:24;;;;;;;8.67;5.73;;;21.50;44.40;;;;;;5075365;28;20201;-24
2022/01/10 10:23:52;;;;;;;8.77;6.10;;;21.70;44.30;;;;;;5075855;28;20208;-24
2022/01/10 10:26:21;;;;;;;8.27;6.33;;;22.10;43.90;;;;;;5076281;28;20253;-24
2022/01/10 10:28:52;;;;;;;11.13;7.10;;;22.60;43.40;;;;;;5076072;28;20699;-22
2022/01/10 10:31:28;;;;;;;12.43;7.43;;;23.40;42.60;;;;;;5058611;28;20169;-23
2022/01/10 10:33:56;;;;;;;10.67;7.70;;;24.30;41.70;;;;;;5058275;28;20181;-21
2022/01/10 10:36:25;;;;;;;13.67;8.20;;;25.10;40.80;;;;;;5075622;28;20262;-24
2022/01/10 10:38:55;;;;;;;11.30;8.27;;;25.60;40.20;;;;;;5058418;28;20298;-23
2022/01/10 10:41:22;;;;;;;11.13;8.43;;;25.90;39.90;;;;;;5058496;28;20182;-25
2022/01/10 10:43:51;;;;;;;13.03;8.13;;;26.10;39.60;;;;;;5057733;28;20186;-22
2022/01/10 10:46:19;;;;;;;12.37;8.13;;;26.10;39.50;;;;;;5058023;28;20239;-21
2022/01/10 10:48:50;;;;;;;10.97;8.50;;;26.20;39.50;;;;;;5058116;28;20239;-22
2022/01/10 10:51:16;;;;;;;11.93;8.57;;;26.10;39.40;;;;;;5075036;28;20222;-23
2022/01/10 10:53:42;;;;;;;10.67;8.30;;;25.90;39.50;;;;;;5057932;28;20185;-22
2022/01/10 10:56:08;;;;;;;12.23;8.50;;;25.60;39.80;;;;;;5057032;28;20189;-22
2022/01/10 10:58:34;;;;;;;13.93;8.97;;;25.30;40.00;;;;;;5057531;28;20252;-23
2022/01/10 11:01:01;;;;;;;12.03;8.10;;;24.90;40.30;;;;;;5057460;28;20184;-22
2022/01/10 11:03:29;;;;;;;11.60;7.87;;;24.60;40.70;;;;;;5058156;28;20560;-24
2022/01/10 11:05:59;;;;;;;10.87;7.67;;;24.10;41.10;;;;;;5075565;28;20169;-22
2022/01/10 11:08:32;;;;;;;12.93;7.90;;;23.80;41.40;;;;;;5057469;28;20599;-23
2022/01/10 11:11:01;;;;;;;11.33;7.57;;;23.50;41.80;;;;;;5074887;28;20171;-26
2022/01/10 11:13:31;;;;;;;12.47;7.17;;;23.30;42.10;;;;;;5074470;28;20732;-24
2022/01/10 11:15:58;;;;;;;12.17;7.50;;;22.90;42.40;;;;;;5057381;28;20180;-22
2022/01/10 11:18:25;;;;;;;10.37;7.27;;;22.70;42.70;;;;;;5074971;28;20211;-25
2022/01/10 11:20:55;;;;;;;9.10;6.20;;;22.40;43.10;;;;;;5075723;28;20179;-21
2022/01/10 11:23:22;;;;;;;11.80;7.17;;;22.10;43.40;;;;;;5057247;28;20194;-24
2022/01/10 11:25:48;;;;;;;9.27;6.50;;;21.90;43.60;;;;;;5074230;28;20263;-25
2022/01/10 11:28:25;;;;;;;10.50;6.60;;;21.70;43.80;;;;;;5074998;28;20217;-23
2022/01/10 11:31:04;;;;;;;10.27;6.47;;;21.50;44.10;;;;;;5074922;28;20209;-23
2022/01/10 11:33:32;;;;;;;10.20;6.77;;;21.40;44.30;;;;;;5075097;28;20210;-25
2022/01/10 11:36:09;;;;;;;13.33;6.40;;;21.50;44.30;;;;;;5057481;28;20194;-23
2022/01/10 11:38:35;;;;;;;7.77;5.50;;;21.90;44.00;;;;;;5074784;28;20498;-23
2022/01/10 11:41:22;;;;;;;10.63;6.10;;;22.40;43.50;;;;;;5074762;28;20561;-23
2022/01/10 11:44:02;;;;;;;12.30;5.80;;;23.00;42.90;;;;;;5057412;28;20171;-25
2022/01/10 11:46:43;;;;;;;9.37;5.40;;;23.60;42.20;;;;;;5074558;28;20164;-23
2022/01/10 11:49:08;;;;;;;8.60;5.37;;;24.10;41.70;;;;;;5074736;28;20171;-22
2022/01/10 11:51:41;;;;;;;8.97;5.43;;;24.60;41.40;;;;;;5074691;28;20186;-23
2022/01/10 11:54:15;;;;;;;7.30;5.20;;;25.10;40.80;;;;;;5074729;28;20165;-22
2022/01/10 11:56:43;;;;;;;7.60;5.00;;;25.50;40.50;;;;;;5056729;28;20173;-23
2022/01/10 11:59:18;;;;;;;8.03;5.20;;;25.60;40.30;;;;;;5074615;28;20180;-22
2022/01/10 12:01:51;;;;;;;8.20;5.27;;;25.60;40.20;;;;;;5067719;28;20171;-24
2022/01/10 12:04:19;;;;;;;7.30;5.00;;;25.30;40.30;;;;;;5073851;28;20166;-25
2022/01/10 12:06:45;;;;;;;6.53;4.73;;;25.10;40.50;;;;;;5073995;28;20189;-23
2022/01/10 12:09:12;;;;;;;9.80;5.23;;;24.90;40.70;;;;;;5074563;28;20781;-22
2022/01/10 12:11:39;;;;;;;8.80;5.00;;;24.60;40.90;;;;;;5056545;28;20181;-23
2022/01/10 12:14:07;;;;;;;6.37;4.47;;;24.30;41.30;;;;;;5056434;28;20229;-22
2022/01/10 12:16:33;;;;;;;7.87;5.00;;;24.00;41.60;;;;;;5074069;28;20506;-24
2022/01/10 12:19:03;;;;;;;5.80;4.33;;;23.80;41.90;;;;;;5083086;28;20197;-23
2022/01/10 12:21:29;;;;;;;5.40;4.40;;;23.40;42.70;;;;;;5094188;28;20244;-23
2022/01/10 12:23:55;;;;;;;6.47;4.47;;;23.10;42.70;;;;;;5096698;28;20493;-24
2022/01/10 12:26:22;;;;;;;5.90;4.30;;;22.80;43.00;;;;;;5079164;28;20290;-23
2022/01/10 12:28:54;;;;;;;6.47;4.33;;;22.60;43.40;;;;;;5097186;28;20255;-21
2022/01/10 12:31:21;;;;;;;7.97;4.43;;;22.40;43.70;;;;;;5097557;28;20205;-24
2022/01/10 12:33:49;;;;;;;7.67;4.23;;;22.10;43.90;;;;;;5080475;28;20205;-21
2022/01/10 12:36:19;;;;;;;6.80;3.93;;;21.90;44.20;;;;;;5097932;28;20181;-25
2022/01/10 12:38:50;;;;;;;7.43;4.17;;;21.70;44.40;;;;;;5079428;28;20214;-25
2022/01/10 12:41:15;;;;;;;7.63;4.13;;;21.50;44.70;;;;;;5097814;28;20245;-25
2022/01/10 12:43:41;;;;;;;5.67;3.90;;;21.20;45.00;;;;;;5098656;28;20265;-24
2022/01/10 12:46:07;;;;;;;9.80;4.17;;;21.10;45.30;;;;;;5080311;28;20178;-25
2022/01/10 12:48:33;;;;;;;6.63;3.80;;;21.20;45.30;;;;;;5080592;28;20182;-24
2022/01/10 12:50:58;;;;;;;6.70;3.70;;;21.50;44.90;;;;;;5080116;28;20198;-21
2022/01/10 12:53:25;;;;;;;5.43;3.67;;;21.90;44.50;;;;;;5097709;28;20657;-21